Time;durP1;ratioP1;P1;durP2;ratioP2;P2;SDS_P1;SDS_P2;PMS_P1;PMS_P2;Temp;Humidity;BMP_temperature;BMP_pressure;BME280_temperature;BME280_humidity;BME280_pressure;Samples;Min_cycle;Max_cycle;Signal;HPM_P1;HPM_P2
2022/05/29 00:01:04;;;;;;;;;;;10.20;1.00;;;;;;5112431;28;19908;-83
2022/05/29 00:03:29;;;;;;;;;;;10.10;1.00;;;;;;5130354;28;19907;-82
2022/05/29 00:05:55;;;;;;;;;;;10.10;1.00;;;;;;5112682;28;20357;-82
2022/05/29 00:08:31;;;;;;;;;;;10.10;1.00;;;;;;5112171;28;19908;-82
2022/05/29 00:10:57;;;;;;;;;;;10.10;1.00;;;;;;5113179;28;19943;-82
2022/05/29 00:13:24;;;;;;;;;;;10.10;1.00;;;;;;5130584;28;19908;-83
2022/05/29 00:15:49;;;;;;;;;;;10.00;1.00;;;;;;5112191;28;19955;-82
2022/05/29 00:18:15;;;;;;;;;;;10.00;1.00;;;;;;5111509;28;19912;-82
2022/05/29 00:21:04;;;;;;;;;;;10.00;1.00;;;;;;5111542;28;19908;-82
2022/05/29 00:23:54;;;;;;;;;;;;;;;;;;;;;
2022/05/29 00:29:53;;;;;;;;;;;;;;;;;;;;;
2022/05/29 00:38:58;;;;;;;;;;;;;;;;;;;;;
2022/05/29 00:44:31;;;;;;;;;;;9.70;1.00;;;;;;5122848;28;19975;-82
2022/05/29 00:47:00;;;;;;;;;;;9.70;81.10;;;;;;5115844;28;19920;-82
2022/05/29 00:49:30;;;;;;;;;;;9.70;99.90;;;;;;5133636;28;20012;-82
2022/05/29 00:52:16;;;;;;;;;;;9.60;99.90;;;;;;5115568;28;19908;-82
2022/05/29 00:54:54;;;;;;;;;;;9.60;1.00;;;;;;5115316;28;19981;-82
2022/05/29 00:57:23;;;;;;;;;;;9.60;1.00;;;;;;5114910;28;19912;-82
2022/05/29 00:59:49;;;;;;;;;;;9.50;1.00;;;;;;5132102;28;19943;-82
2022/05/29 01:02:14;;;;;;;;;;;9.50;99.90;;;;;;5132839;28;20364;-83
2022/05/29 01:04:43;;;;;;;;;;;9.50;99.90;;;;;;5133190;28;20065;-82
2022/05/29 01:07:10;;;;;;;;;;;9.50;1.00;;;;;;5133227;28;19990;-82
2022/05/29 01:09:36;;;;;;;;;;;9.50;1.00;;;;;;5115384;28;19958;-82
2022/05/29 01:12:05;;;;;;;;;;;9.40;99.90;;;;;;5133302;28;19936;-82
2022/05/29 01:14:46;;;;;;;;;;;9.40;99.90;;;;;;5115567;28;19915;-82
2022/05/29 01:17:41;;;;;;;;;;;9.40;99.90;;;;;;5133590;28;20010;-81
2022/05/29 01:20:09;;;;;;;;;;;9.40;1.00;;;;;;5130453;28;19908;-83
2022/05/29 01:22:49;;;;;;;;;;;9.40;1.00;;;;;;5133897;28;19907;-82
2022/05/29 01:25:30;;;;;;;;;;;9.40;1.00;;;;;;5114394;22;19970;-83
2022/05/29 01:28:09;;;;;;;;;;;9.30;1.00;;;;;;5063219;28;19913;-83
2022/05/29 01:30:38;;;;;;;;;;;9.30;1.00;;;;;;5063984;28;19915;-84
2022/05/29 01:33:13;;;;;;;;;;;9.30;99.90;;;;;;5082151;28;19909;-83
2022/05/29 01:35:45;;;;;;;;;;;9.30;99.90;;;;;;5082340;28;19954;-83
2022/05/29 01:38:15;;;;;;;;;;;9.30;99.90;;;;;;5081278;28;19920;-84
2022/05/29 01:40:53;;;;;;;;;;;9.20;99.90;;;;;;5081396;28;19909;-83
2022/05/29 01:43:25;;;;;;;;;;;9.20;99.90;;;;;;5083677;28;19908;-83
2022/05/29 01:45:54;;;;;;;;;;;9.20;1.00;;;;;;5083661;28;19909;-83
2022/05/29 01:48:22;;;;;;;;;;;9.20;1.00;;;;;;5061990;28;19928;-84
2022/05/29 01:50:53;;;;;;;;;;;9.20;1.00;;;;;;5061874;28;19913;-84
2022/05/29 01:53:26;;;;;;;;;;;9.10;21.30;;;;;;5079549;28;19909;-84
2022/05/29 01:55:54;;;;;;;;;;;9.10;99.90;;;;;;5081800;28;19908;-84
2022/05/29 01:58:40;;;;;;;;;;;9.10;99.90;;;;;;5066382;28;19943;-84
2022/05/29 02:01:07;;;;;;;;;;;9.10;99.90;;;;;;5081802;28;19915;-84
2022/05/29 02:03:35;;;;;;;;;;;9.10;99.90;;;;;;5080903;28;19908;-84
2022/05/29 02:06:06;;;;;;;;;;;9.00;1.00;;;;;;5081651;28;19916;-83
2022/05/29 02:08:33;;;;;;;;;;;9.00;1.00;;;;;;5082238;28;19930;-84
2022/05/29 02:11:05;;;;;;;;;;;9.00;16.10;;;;;;5068454;28;19909;-82
2022/05/29 02:13:30;;;;;;;;;;;9.00;99.90;;;;;;5087700;28;19915;-84
2022/05/29 02:16:11;;;;;;;;;;;8.90;99.90;;;;;;5081570;28;19908;-84
2022/05/29 02:18:40;;;;;;;;;;;8.90;99.90;;;;;;5080687;28;19909;-85
2022/05/29 02:21:10;;;;;;;;;;;8.90;99.90;;;;;;5080318;28;20038;-83
2022/05/29 02:23:38;;;;;;;;;;;8.90;99.90;;;;;;5062273;28;19932;-84
2022/05/29 02:26:05;;;;;;;;;;;8.80;1.00;;;;;;5079528;28;19973;-83
2022/05/29 02:28:36;;;;;;;;;;;8.80;1.00;;;;;;5079528;28;19908;-84
2022/05/29 02:31:14;;;;;;;;;;;8.80;1.00;;;;;;5080051;28;19916;-84
2022/05/29 02:33:43;;;;;;;;;;;8.80;1.00;;;;;;5079777;28;19992;-83
2022/05/29 02:36:24;;;;;;;;;;;8.80;1.00;;;;;;5079799;28;19952;-85
2022/05/29 02:38:56;;;;;;;;;;;8.80;99.90;;;;;;5061885;28;19912;-84
2022/05/29 02:41:29;;;;;;;;;;;8.80;99.90;;;;;;5079845;28;19954;-85
2022/05/29 02:44:01;;;;;;;;;;;8.80;99.90;;;;;;5079743;28;20003;-85
2022/05/29 02:46:31;;;;;;;;;;;8.80;99.90;;;;;;5078926;28;20305;-84
2022/05/29 02:49:03;;;;;;;;;;;8.80;99.90;;;;;;5079381;28;19909;-84
2022/05/29 02:51:34;;;;;;;;;;;8.70;99.90;;;;;;5079438;28;19908;-84
2022/05/29 02:54:00;;;;;;;;;;;8.80;99.90;;;;;;5061573;28;19913;-85
2022/05/29 02:56:25;;;;;;;;;;;8.80;99.90;;;;;;5079545;28;19909;-83
2022/05/29 02:58:52;;;;;;;;;;;8.80;99.90;;;;;;5079326;28;19915;-84
2022/05/29 03:01:36;;;;;;;;;;;8.80;99.90;;;;;;5079943;28;19916;-83
2022/05/29 03:04:04;;;;;;;;;;;8.90;99.90;;;;;;5079290;28;19909;-84
2022/05/29 03:06:48;;;;;;;;;;;8.90;99.90;;;;;;5079386;28;19916;-83
2022/05/29 03:09:19;;;;;;;;;;;8.90;99.90;;;;;;5079662;28;19954;-84
2022/05/29 03:11:45;;;;;;;;;;;9.00;99.90;;;;;;5079130;28;19928;-84
2022/05/29 03:14:20;;;;;;;;;;;9.00;99.90;;;;;;5061484;28;19942;-84
2022/05/29 03:16:59;;;;;;;;;;;9.00;99.90;;;;;;5079526;28;19913;-84
2022/05/29 03:19:51;;;;;;;;;;;9.00;99.90;;;;;;5079266;28;19908;-84
2022/05/29 03:22:31;;;;;;;;;;;9.00;99.90;;;;;;5073965;28;20233;-84
2022/05/29 03:25:06;;;;;;;;;;;9.10;99.90;;;;;;5078778;28;19917;-83
2022/05/29 03:27:35;;;;;;;;;;;9.10;99.90;;;;;;5081493;28;19919;-84
2022/05/29 03:30:19;;;;;;;;;;;9.10;99.90;;;;;;5062148;28;19908;-84
2022/05/29 03:32:46;;;;;;;;;;;9.10;99.90;;;;;;5061716;28;19908;-84
2022/05/29 03:35:20;;;;;;;;;;;9.10;99.90;;;;;;5079346;28;19915;-84
2022/05/29 03:37:46;;;;;;;;;;;9.20;99.90;;;;;;5079697;28;19915;-84
2022/05/29 03:40:12;;;;;;;;;;;9.20;99.90;;;;;;5070188;28;19936;-83
2022/05/29 03:42:37;;;;;;;;;;;9.20;99.90;;;;;;5058403;28;19909;-84
2022/05/29 03:45:03;;;;;;;;;;;9.20;99.90;;;;;;5059506;28;20380;-83
2022/05/29 03:47:29;;;;;;;;;;;9.20;99.90;;;;;;5059498;28;19975;-83
2022/05/29 03:49:54;;;;;;;;;;;9.20;99.90;;;;;;5059584;28;20423;-84
2022/05/29 03:52:20;;;;;;;;;;;9.20;99.90;;;;;;5059007;28;19938;-84
2022/05/29 03:54:45;;;;;;;;;;;9.20;1.00;;;;;;5059837;28;19909;-83
2022/05/29 03:57:11;;;;;;;;;;;9.20;1.00;;;;;;5059873;28;19909;-83
2022/05/29 03:59:36;;;;;;;;;;;9.30;1.00;;;;;;5060070;28;19916;-85
2022/05/29 04:02:02;;;;;;;;;;;9.20;99.90;;;;;;5060152;28;19908;-83
2022/05/29 04:04:27;;;;;;;;;;;9.20;99.90;;;;;;5060288;28;20331;-83
2022/05/29 04:06:53;;;;;;;;;;;9.20;99.90;;;;;;5060384;28;19935;-83
2022/05/29 04:12:05;;;;;;;;;;;9.20;1.00;;;;;;5059168;28;19916;-84
2022/05/29 04:14:32;;;;;;;;;;;9.20;1.00;;;;;;5059788;28;19909;-84
2022/05/29 04:16:57;;;;;;;;;;;9.20;1.00;;;;;;5059233;28;20457;-85
2022/05/29 04:19:23;;;;;;;;;;;9.20;1.00;;;;;;5058989;28;19944;-84
2022/05/29 04:21:49;;;;;;;;;;;9.20;1.00;;;;;;5058045;28;20312;-84
2022/05/29 04:24:19;;;;;;;;;;;9.20;1.00;;;;;;5058966;28;20442;-83
2022/05/29 04:26:45;;;;;;;;;;;9.30;99.90;;;;;;5059334;28;19967;-84
2022/05/29 04:29:10;;;;;;;;;;;9.30;99.90;;;;;;5057994;28;19913;-84
2022/05/29 04:31:36;;;;;;;;;;;9.30;99.90;;;;;;5061204;28;19913;-84
2022/05/29 04:34:01;;;;;;;;;;;9.40;99.90;;;;;;5061742;28;19941;-84
2022/05/29 04:36:27;;;;;;;;;;;9.50;99.90;;;;;;5060804;28;19909;-83
2022/05/29 04:38:52;;;;;;;;;;;9.50;99.90;;;;;;5057574;28;19909;-84
2022/05/29 04:41:24;;;;;;;;;;;9.60;99.90;;;;;;5076835;28;19908;-83
2022/05/29 04:43:50;;;;;;;;;;;9.70;99.90;;;;;;5077171;28;20321;-84
2022/05/29 04:46:16;;;;;;;;;;;9.80;99.90;;;;;;5077203;28;19919;-84
2022/05/29 04:48:41;;;;;;;;;;;9.90;1.00;;;;;;5077848;28;19952;-84
2022/05/29 04:51:07;;;;;;;;;;;10.10;1.00;;;;;;5077586;28;20211;-84
2022/05/29 04:53:33;;;;;;;;;;;10.10;99.90;;;;;;5077275;28;20319;-83
2022/05/29 04:55:59;;;;;;;;;;;10.10;12.20;;;;;;5077036;28;19908;-83
2022/05/29 04:58:25;;;;;;;;;;;10.20;1.00;;;;;;5059263;28;20003;-85
2022/05/29 05:00:57;;;;;;;;;;;10.30;1.00;;;;;;5081215;28;19908;-85
2022/05/29 05:03:23;;;;;;;;;;;10.30;1.00;;;;;;5061446;28;20390;-84
2022/05/29 05:05:49;;;;;;;;;;;10.40;1.00;;;;;;5079221;28;20003;-84
2022/05/29 05:08:14;;;;;;;;;;;10.50;99.90;;;;;;5078916;28;19950;-85
2022/05/29 05:10:41;;;;;;;;;;;10.60;99.90;;;;;;5080754;28;19908;-85
2022/05/29 05:13:08;;;;;;;;;;;10.60;1.00;;;;;;5082696;28;19908;-84
2022/05/29 05:15:33;;;;;;;;;;;10.70;1.00;;;;;;5082339;28;19916;-84
2022/05/29 05:17:59;;;;;;;;;;;10.90;1.00;;;;;;5082991;28;19912;-84
2022/05/29 05:20:24;;;;;;;;;;;11.20;99.90;;;;;;5082635;28;19912;-84
2022/05/29 05:22:51;;;;;;;;;;;11.40;99.90;;;;;;5081903;28;19908;-85
2022/05/29 05:25:16;;;;;;;;;;;11.60;1.00;;;;;;5063824;28;19999;-84
2022/05/29 05:27:42;;;;;;;;;;;11.80;99.90;;;;;;5063568;28;19947;-83
2022/05/29 05:30:08;;;;;;;;;;;12.10;1.00;;;;;;5081800;28;19909;-84
2022/05/29 05:32:33;;;;;;;;;;;12.20;99.90;;;;;;5063415;28;19979;-84
2022/05/29 05:35:03;;;;;;;;;;;12.20;99.90;;;;;;5063685;28;19916;-81
2022/05/29 05:37:29;;;;;;;;;;;12.30;99.90;;;;;;5080863;28;19941;-81
2022/05/29 05:39:55;;;;;;;;;;;12.40;99.90;;;;;;5082044;28;19908;-82
2022/05/29 05:42:20;;;;;;;;;;;12.40;55.40;;;;;;5062977;28;19912;-82
2022/05/29 05:44:48;;;;;;;;;;;12.40;99.90;;;;;;5080533;28;19908;-81
2022/05/29 05:47:13;;;;;;;;;;;12.30;99.90;;;;;;5062797;28;19912;-82
2022/05/29 05:49:39;;;;;;;;;;;12.30;99.90;;;;;;5080927;28;19972;-81
2022/05/29 05:52:04;;;;;;;;;;;12.20;99.90;;;;;;5081094;28;19931;-82
2022/05/29 05:54:31;;;;;;;;;;;12.20;99.90;;;;;;5081189;28;19912;-81
2022/05/29 05:56:56;;;;;;;;;;;12.30;99.90;;;;;;5081295;28;19962;-82
2022/05/29 05:59:22;;;;;;;;;;;12.30;99.90;;;;;;5063658;28;19908;-82
2022/05/29 06:01:47;;;;;;;;;;;12.30;99.90;;;;;;5081258;28;19908;-82
2022/05/29 06:04:13;;;;;;;;;;;12.40;99.90;;;;;;5081540;28;19976;-82
2022/05/29 06:06:38;;;;;;;;;;;12.40;99.90;;;;;;5080549;28;19916;-82
2022/05/29 06:09:04;;;;;;;;;;;12.40;99.90;;;;;;5081137;28;19970;-82
2022/05/29 06:11:29;;;;;;;;;;;12.40;99.90;;;;;;5081236;28;19979;-82
2022/05/29 06:13:55;;;;;;;;;;;12.40;99.90;;;;;;5080939;28;19909;-82
2022/05/29 06:16:21;;;;;;;;;;;12.40;99.90;;;;;;5080404;28;19909;-82
2022/05/29 06:18:46;;;;;;;;;;;12.40;99.90;;;;;;5082034;28;19940;-82
2022/05/29 06:21:12;;;;;;;;;;;12.40;99.90;;;;;;5080661;28;20345;-82
2022/05/29 06:23:38;;;;;;;;;;;12.50;99.90;;;;;;5080543;28;19924;-81
2022/05/29 06:26:08;;;;;;;;;;;12.60;99.90;;;;;;5080984;28;19924;-82
2022/05/29 06:28:33;;;;;;;;;;;12.60;99.90;;;;;;5082110;28;20424;-82
2022/05/29 06:30:59;;;;;;;;;;;12.70;99.90;;;;;;5064145;28;19963;-82
2022/05/29 06:33:26;;;;;;;;;;;12.80;99.90;;;;;;5067064;28;19944;-81
2022/05/29 06:35:52;;;;;;;;;;;12.80;1.00;;;;;;5083123;28;19916;-82
2022/05/29 06:38:18;;;;;;;;;;;12.90;1.00;;;;;;5079542;28;19912;-82
2022/05/29 06:40:49;;;;;;;;;;;12.90;1.00;;;;;;5064765;28;20351;-82
2022/05/29 06:43:15;;;;;;;;;;;12.90;1.00;;;;;;5060426;28;20312;-82
2022/05/29 06:45:40;;;;;;;;;;;12.90;1.00;;;;;;5060160;28;19948;-82
2022/05/29 06:48:06;;;;;;;;;;;12.90;1.00;;;;;;5059078;28;20358;-82
2022/05/29 06:50:31;;;;;;;;;;;12.90;1.00;;;;;;5059897;28;19916;-82
2022/05/29 06:52:56;;;;;;;;;;;12.90;1.00;;;;;;5060585;28;19912;-82
2022/05/29 06:55:22;;;;;;;;;;;12.90;1.00;;;;;;5060269;28;19972;-82
2022/05/29 06:57:48;;;;;;;;;;;12.90;50.50;;;;;;5060065;28;19909;-82
2022/05/29 07:08:30;;;;;;;;;;;13.40;99.90;;;;;;5060015;28;19920;-83
2022/05/29 07:10:56;;;;;;;;;;;13.60;99.90;;;;;;5060003;28;19912;-83
2022/05/29 07:13:22;;;;;;;;;;;13.90;99.90;;;;;;5058490;28;20011;-83
2022/05/29 07:15:48;;;;;;;;;;;14.00;1.00;;;;;;5059605;28;19951;-83
2022/05/29 07:18:13;;;;;;;;;;;14.00;1.00;;;;;;5059323;28;19923;-83
2022/05/29 07:20:38;;;;;;;;;;;14.00;1.00;;;;;;5059295;28;19917;-83
2022/05/29 07:23:04;;;;;;;;;;;14.00;1.00;;;;;;5059261;28;19908;-83
2022/05/29 07:25:30;;;;;;;;;;;13.60;99.90;;;;;;5112377;22;19955;-81
2022/05/29 07:27:55;;;;;;;;;;;13.40;1.00;;;;;;5078258;28;19916;-81
2022/05/29 07:30:21;;;;;;;;;;;13.10;1.00;;;;;;5062184;28;19912;-83
2022/05/29 07:32:47;;;;;;;;;;;12.90;99.90;;;;;;5061781;28;19908;-81
2022/05/29 07:35:13;;;;;;;;;;;13.00;1.00;;;;;;5079395;28;19909;-82
2022/05/29 07:37:38;;;;;;;;;;;13.30;1.00;;;;;;5078562;28;19920;-81
2022/05/29 07:40:04;;;;;;;;;;;13.60;99.90;;;;;;5061896;28;19913;-81
2022/05/29 07:45:14;;;;;;;;;;;13.40;99.90;;;;;;5081014;28;20292;-84
2022/05/29 07:47:41;;;;;;;;;;;13.80;1.00;;;;;;5080397;28;19912;-83
2022/05/29 07:50:08;;;;;;;;;;;14.20;1.00;;;;;;5062744;28;19908;-84
2022/05/29 07:52:33;;;;;;;;;;;14.60;1.00;;;;;;5063076;28;19916;-81
2022/05/29 07:54:59;;;;;;;;;;;14.90;99.90;;;;;;5063188;28;19908;-80
2022/05/29 07:57:25;;;;;;;;;;;15.30;99.90;;;;;;5063087;28;20053;-81
2022/05/29 07:59:50;;;;;;;;;;;15.60;1.00;;;;;;5080953;28;19915;-83
2022/05/29 08:02:16;;;;;;;;;;;16.20;1.00;;;;;;5080751;28;19908;-83
2022/05/29 08:04:42;;;;;;;;;;;16.20;1.00;;;;;;5081404;28;19909;-83
2022/05/29 08:07:08;;;;;;;;;;;16.80;99.90;;;;;;5062772;28;19919;-82
2022/05/29 08:09:34;;;;;;;;;;;19.60;99.90;;;;;;5081719;28;19913;-82
2022/05/29 08:11:59;;;;;;;;;;;25.80;99.90;;;;;;5065256;28;20384;-82
2022/05/29 08:14:24;;;;;;;;;;;30.60;99.90;;;;;;5083884;28;19916;-82
2022/05/29 08:16:50;;;;;;;;;;;34.40;99.90;;;;;;5083442;28;19913;-82
2022/05/29 08:19:18;;;;;;;;;;;36.90;99.90;;;;;;5084045;28;19952;-83
2022/05/29 08:21:43;;;;;;;;;;;39.20;99.90;;;;;;5085498;28;19908;-82
2022/05/29 08:32:21;;;;;;;;;;;28.00;99.90;;;;;;5085481;28;19931;-81
2022/05/29 08:34:47;;;;;;;;;;;26.00;99.90;;;;;;5084993;28;19909;-81
2022/05/29 08:37:12;;;;;;;;;;;24.50;99.90;;;;;;5066901;28;19916;-81
2022/05/29 08:39:38;;;;;;;;;;;24.00;99.90;;;;;;5084330;28;20018;-81
2022/05/29 08:42:03;;;;;;;;;;;25.60;99.90;;;;;;5067274;28;20399;-81
2022/05/29 08:44:49;;;;;;;;;;;25.30;99.90;;;;;;5085954;28;20030;-81
2022/05/29 08:47:15;;;;;;;;;;;23.80;99.90;;;;;;5088693;28;20050;-81
2022/05/29 08:49:43;;;;;;;;;;;22.30;99.90;;;;;;5088675;28;19924;-81
2022/05/29 08:52:38;;;;;;;;;;;21.30;99.90;;;;;;5070806;28;19935;-81
2022/05/29 08:55:11;;;;;;;;;;;20.20;99.90;;;;;;5034894;28;19913;-81
2022/05/29 08:57:54;;;;;;;;;;;19.50;99.90;;;;;;5088089;28;19920;-81
2022/05/29 09:00:38;;;;;;;;;;;19.50;99.90;;;;;;5088762;28;19909;-81
2022/05/29 09:03:04;;;;;;;;;;;23.10;99.90;;;;;;5089066;28;19916;-82
2022/05/29 09:05:35;;;;;;;;;;;23.90;99.90;;;;;;5068713;28;19953;-82
2022/05/29 09:08:09;;;;;;;;;;;23.80;99.90;;;;;;5069677;28;19915;-81
2022/05/29 09:10:36;;;;;;;;;;;22.90;99.90;;;;;;5071479;28;19954;-81
2022/05/29 09:13:02;;;;;;;;;;;21.60;99.90;;;;;;5088163;28;19944;-80
2022/05/29 09:15:32;;;;;;;;;;;20.60;99.90;;;;;;5088701;28;19908;-81
2022/05/29 09:18:01;;;;;;;;;;;19.90;99.90;;;;;;5070377;28;19912;-80
2022/05/29 09:20:45;;;;;;;;;;;18.80;99.90;;;;;;5070054;28;20010;-81
2022/05/29 09:23:17;;;;;;;;;;;18.50;99.90;;;;;;5071039;28;19939;-80
2022/05/29 09:25:43;;;;;;;;;;;20.10;99.90;;;;;;5070793;28;20558;-81
2022/05/29 09:28:11;;;;;;;;;;;23.60;99.90;;;;;;5088437;28;19912;-81
2022/05/29 09:30:38;;;;;;;;;;;27.20;99.90;;;;;;5088679;28;19908;-81
2022/05/29 09:33:25;;;;;;;;;;;27.30;99.90;;;;;;5070331;28;19919;-81
2022/05/29 09:35:50;;;;;;;;;;;27.50;99.90;;;;;;5070244;28;19944;-81
2022/05/29 09:38:19;;;;;;;;;;;27.70;99.90;;;;;;5071067;28;19931;-81
2022/05/29 09:40:49;;;;;;;;;;;27.20;99.90;;;;;;5070976;28;19939;-81
2022/05/29 09:43:16;;;;;;;;;;;26.00;99.90;;;;;;5089450;28;19916;-82
2022/05/29 09:45:42;;;;;;;;;;;25.20;99.90;;;;;;5071100;28;19908;-81
2022/05/29 09:51:13;;;;;;;;;;;22.60;99.90;;;;;;5088514;28;20012;-81
2022/05/29 09:53:45;;;;;;;;;;;20.80;99.90;;;;;;5088223;28;19909;-81
2022/05/29 09:56:11;;;;;;;;;;;19.60;99.90;;;;;;5088145;28;19916;-83
2022/05/29 09:58:47;;;;;;;;;;;19.30;99.90;;;;;;5070197;28;19908;-81
2022/05/29 10:01:25;;;;;;;;;;;21.20;99.90;;;;;;5089417;28;19909;-80
2022/05/29 10:03:52;;;;;;;;;;;21.80;99.90;;;;;;5071001;28;19909;-81
2022/05/29 10:06:30;;;;;;;;;;;22.20;99.90;;;;;;5070650;28;19909;-81
2022/05/29 10:09:07;;;;;;;;;;;22.50;99.90;;;;;;5071211;28;19908;-82
2022/05/29 10:11:33;;;;;;;;;;;22.50;99.90;;;;;;5070704;28;19963;-81
2022/05/29 10:14:01;;;;;;;;;;;22.10;99.90;;;;;;5070629;28;19909;-81
2022/05/29 10:16:30;;;;;;;;;;;21.10;99.90;;;;;;5070287;28;19912;-80
2022/05/29 10:18:56;;;;;;;;;;;19.60;99.90;;;;;;5069425;28;19915;-81
2022/05/29 10:21:23;;;;;;;;;;;18.50;99.90;;;;;;5070015;28;19991;-80
2022/05/29 10:23:50;;;;;;;;;;;17.90;99.90;;;;;;5069802;28;19909;-81
2022/05/29 10:26:26;;;;;;;;;;;17.60;99.90;;;;;;5088141;28;19916;-83
2022/05/29 10:28:51;;;;;;;;;;;17.20;99.90;;;;;;5069610;28;19915;-80
2022/05/29 10:31:29;;;;;;;;;;;16.80;99.90;;;;;;5088091;28;19979;-80
2022/05/29 10:34:12;;;;;;;;;;;16.50;99.90;;;;;;5069531;28;19909;-80
2022/05/29 10:36:39;;;;;;;;;;;16.30;99.90;;;;;;5069289;28;20003;-82
2022/05/29 10:39:12;;;;;;;;;;;16.00;99.90;;;;;;5087687;28;19924;-82
2022/05/29 10:41:39;;;;;;;;;;;15.90;99.90;;;;;;5070046;28;19915;-82
2022/05/29 10:44:05;;;;;;;;;;;15.70;99.90;;;;;;5068868;28;19909;-82
2022/05/29 10:46:44;;;;;;;;;;;15.70;99.90;;;;;;5086390;28;19915;-83
2022/05/29 10:49:25;;;;;;;;;;;15.80;99.90;;;;;;5068865;28;19915;-82
2022/05/29 10:52:09;;;;;;;;;;;16.00;99.90;;;;;;5068851;28;20010;-82
2022/05/29 10:54:45;;;;;;;;;;;16.40;99.90;;;;;;5068899;28;19980;-82
2022/05/29 10:57:29;;;;;;;;;;;16.70;99.90;;;;;;5087203;28;19967;-83
2022/05/29 11:00:07;;;;;;;;;;;17.20;99.90;;;;;;5086993;28;19976;-84
2022/05/29 11:05:35;;;;;;;;;;;20.10;99.90;;;;;;5087638;28;19920;-81
2022/05/29 11:08:15;;;;;;;;;;;21.70;99.90;;;;;;5086120;28;19924;-81
2022/05/29 11:10:53;;;;;;;;;;;24.00;99.90;;;;;;5086888;28;19909;-81
2022/05/29 11:13:25;;;;;;;;;;;25.90;99.90;;;;;;5069910;28;19919;-82
2022/05/29 11:16:00;;;;;;;;;;;27.70;99.90;;;;;;5087208;28;19908;-81
2022/05/29 11:18:57;;;;;;;;;;;28.00;99.90;;;;;;5087245;28;19919;-81
2022/05/29 11:21:37;;;;;;;;;;;27.40;99.90;;;;;;5047333;28;19908;-81
2022/05/29 11:24:05;;;;;;;;;;;27.90;99.90;;;;;;5069425;28;19908;-81
2022/05/29 11:26:51;;;;;;;;;;;28.30;99.90;;;;;;5069710;28;19980;-81
2022/05/29 11:29:18;;;;;;;;;;;28.60;99.90;;;;;;5048886;28;19908;-82
2022/05/29 11:31:46;;;;;;;;;;;28.60;99.90;;;;;;5087244;28;19972;-82
2022/05/29 11:34:14;;;;;;;;;;;28.90;99.90;;;;;;5089634;28;19915;-81
2022/05/29 11:36:52;;;;;;;;;;;28.80;99.90;;;;;;5088065;28;19965;-81
2022/05/29 11:39:36;;;;;;;;;;;27.40;99.90;;;;;;5086955;28;19908;-81
2022/05/29 11:42:01;;;;;;;;;;;26.10;99.90;;;;;;5086563;28;19988;-81
2022/05/29 11:44:47;;;;;;;;;;;25.70;99.90;;;;;;5068386;28;20430;-80
2022/05/29 11:53:11;;;;;;;;;;;24.80;99.90;;;;;;5087617;28;19931;-80
2022/05/29 11:55:41;;;;;;;;;;;25.90;99.90;;;;;;5087276;28;19939;-80
2022/05/29 11:58:17;;;;;;;;;;;26.40;99.90;;;;;;5086386;28;19939;-81
2022/05/29 12:01:05;;;;;;;;;;;27.00;99.90;;;;;;5069140;28;19916;-82
2022/05/29 12:03:30;;;;;;;;;;;27.30;99.90;;;;;;5069635;28;20372;-81
2022/05/29 12:06:11;;;;;;;;;;;27.00;99.90;;;;;;5087215;28;19923;-81
2022/05/29 12:08:52;;;;;;;;;;;26.20;99.90;;;;;;5086518;28;19908;-81
2022/05/29 12:11:36;;;;;;;;;;;25.30;99.90;;;;;;5068977;28;19972;-81
2022/05/29 12:14:01;;;;;;;;;;;24.00;99.90;;;;;;5086805;28;19968;-81
2022/05/29 12:16:28;;;;;;;;;;;22.80;99.90;;;;;;5068867;28;19919;-81
2022/05/29 12:18:55;;;;;;;;;;;22.30;99.90;;;;;;5069786;28;19920;-82
2022/05/29 12:21:30;;;;;;;;;;;22.10;99.90;;;;;;5072980;28;19908;-81
2022/05/29 12:24:00;;;;;;;;;;;23.00;99.90;;;;;;5090537;28;19958;-81
2022/05/29 12:26:28;;;;;;;;;;;23.10;99.90;;;;;;5072772;28;19912;-81
2022/05/29 12:28:54;;;;;;;;;;;23.20;99.90;;;;;;5073537;28;19912;-81
2022/05/29 12:31:33;;;;;;;;;;;23.10;99.90;;;;;;5090942;28;19958;-81
2022/05/29 12:33:59;;;;;;;;;;;22.90;99.90;;;;;;5090508;28;19908;-81
2022/05/29 12:36:50;;;;;;;;;;;22.00;99.90;;;;;;5072128;28;19920;-81
2022/05/29 12:39:15;;;;;;;;;;;21.20;99.90;;;;;;5072021;28;19909;-81
2022/05/29 12:41:40;;;;;;;;;;;20.60;99.90;;;;;;5072596;28;20389;-82
2022/05/29 12:44:23;;;;;;;;;;;20.00;99.90;;;;;;5088969;28;19908;-82
2022/05/29 12:47:05;;;;;;;;;;;19.60;99.90;;;;;;5089005;28;19963;-82
2022/05/29 12:49:36;;;;;;;;;;;18.80;99.90;;;;;;5071247;28;19931;-82
2022/05/29 12:52:28;;;;;;;;;;;18.20;99.90;;;;;;5088428;28;19909;-82
2022/05/29 12:55:26;;;;;;;;;;;17.80;99.90;;;;;;5071905;28;19912;-82
2022/05/29 12:57:59;;;;;;;;;;;17.40;99.90;;;;;;5069958;28;19965;-82
2022/05/29 13:00:44;;;;;;;;;;;17.10;99.90;;;;;;5087590;28;19909;-82
2022/05/29 13:03:18;;;;;;;;;;;17.00;99.90;;;;;;5069225;28;19959;-82
2022/05/29 13:06:04;;;;;;;;;;;16.70;99.90;;;;;;5070050;28;19955;-82
2022/05/29 13:08:30;;;;;;;;;;;16.70;99.90;;;;;;5069664;28;19945;-82
2022/05/29 13:10:56;;;;;;;;;;;16.70;99.90;;;;;;5069082;28;19913;-82
2022/05/29 13:13:22;;;;;;;;;;;16.80;99.90;;;;;;5069966;28;19915;-82
2022/05/29 13:15:48;;;;;;;;;;;16.80;99.90;;;;;;5087135;28;19908;-81
2022/05/29 13:21:06;;;;;;;;;;;16.50;99.90;;;;;;5087573;28;19909;-82
2022/05/29 13:23:33;;;;;;;;;;;16.20;99.90;;;;;;5069668;28;19908;-82
2022/05/29 13:25:58;;;;;;;;;;;16.10;99.90;;;;;;5070941;28;19916;-82
2022/05/29 13:28:43;;;;;;;;;;;16.20;99.90;;;;;;5070114;28;20000;-83
2022/05/29 13:31:14;;;;;;;;;;;16.00;99.90;;;;;;5068548;28;19909;-83
2022/05/29 13:33:43;;;;;;;;;;;16.10;99.90;;;;;;5088629;28;19940;-83
2022/05/29 13:36:09;;;;;;;;;;;16.20;99.90;;;;;;5088495;28;19909;-83
2022/05/29 13:38:43;;;;;;;;;;;16.30;99.90;;;;;;5070747;28;19951;-83
2022/05/29 13:41:12;;;;;;;;;;;16.50;99.90;;;;;;5070140;28;19940;-83
2022/05/29 13:43:39;;;;;;;;;;;17.00;99.90;;;;;;5070024;28;20382;-83
2022/05/29 13:46:07;;;;;;;;;;;17.20;99.90;;;;;;5087359;28;20284;-83
2022/05/29 13:48:52;;;;;;;;;;;17.30;99.90;;;;;;5087606;28;19940;-83
2022/05/29 13:51:28;;;;;;;;;;;17.80;99.90;;;;;;5069112;28;19940;-82
2022/05/29 13:54:05;;;;;;;;;;;18.30;99.90;;;;;;5087462;28;19909;-83
2022/05/29 13:56:47;;;;;;;;;;;18.60;99.90;;;;;;5069611;28;19938;-83
2022/05/29 14:04:49;;;;;;;;;;;18.80;99.90;;;;;;5087744;28;19968;-83
2022/05/29 14:07:17;;;;;;;;;;;18.70;99.90;;;;;;5070028;28;19908;-83
2022/05/29 14:09:59;;;;;;;;;;;18.70;99.90;;;;;;5087753;28;19964;-82
2022/05/29 14:12:24;;;;;;;;;;;18.90;99.90;;;;;;5086718;28;19909;-83
2022/05/29 14:14:51;;;;;;;;;;;19.20;99.90;;;;;;5087360;28;19947;-82
2022/05/29 14:17:31;;;;;;;;;;;19.40;99.90;;;;;;5069535;28;19948;-83
2022/05/29 14:20:15;;;;;;;;;;;19.40;99.90;;;;;;5087093;28;19909;-82
2022/05/29 14:22:45;;;;;;;;;;;19.60;99.90;;;;;;5068504;28;20015;-83
2022/05/29 14:25:26;;;;;;;;;;;19.90;99.90;;;;;;5069078;28;19916;-82
2022/05/29 14:28:02;;;;;;;;;;;19.30;99.90;;;;;;5068777;28;20387;-82
2022/05/29 14:30:43;;;;;;;;;;;18.90;99.90;;;;;;5086279;28;20303;-82
2022/05/29 14:33:09;;;;;;;;;;;18.70;99.90;;;;;;5068501;28;19908;-83
2022/05/29 14:35:46;;;;;;;;;;;18.30;99.90;;;;;;5085672;28;19915;-82
2022/05/29 14:38:12;;;;;;;;;;;18.10;99.90;;;;;;5067891;28;19976;-82
2022/05/29 14:40:41;;;;;;;;;;;17.70;99.90;;;;;;5068037;28;20269;-83
2022/05/29 14:43:11;;;;;;;;;;;17.40;99.90;;;;;;5068845;28;20012;-83
2022/05/29 14:45:37;;;;;;;;;;;17.10;99.90;;;;;;5068105;28;19988;-83
2022/05/29 14:48:06;;;;;;;;;;;16.90;99.90;;;;;;5067911;28;19913;-83
2022/05/29 14:50:33;;;;;;;;;;;16.80;99.90;;;;;;5068715;28;20327;-83
2022/05/29 14:53:04;;;;;;;;;;;16.90;99.90;;;;;;5067757;28;19908;-83
2022/05/29 14:55:49;;;;;;;;;;;17.20;99.90;;;;;;5085882;28;19934;-83
2022/05/29 14:58:30;;;;;;;;;;;17.70;99.90;;;;;;5057807;28;19920;-83
2022/05/29 15:01:05;;;;;;;;;;;18.20;99.90;;;;;;5087043;28;19968;-83
2022/05/29 15:03:34;;;;;;;;;;;18.60;99.90;;;;;;5069144;28;19908;-83
2022/05/29 15:06:01;;;;;;;;;;;18.60;99.90;;;;;;5085993;28;19908;-83
2022/05/29 15:11:18;;;;;;;;;;;18.10;99.90;;;;;;5085586;28;19953;-82
2022/05/29 15:13:59;;;;;;;;;;;18.00;99.90;;;;;;5068117;28;20420;-83
2022/05/29 15:16:25;;;;;;;;;;;17.80;99.90;;;;;;5085330;28;19905;-83
2022/05/29 15:18:50;;;;;;;;;;;17.60;99.90;;;;;;5068512;28;19915;-83
2022/05/29 15:24:15;;;;;;;;;;;17.80;99.90;;;;;;5085621;28;19962;-83
2022/05/29 15:26:47;;;;;;;;;;;18.00;99.90;;;;;;5067634;28;19930;-83
2022/05/29 15:29:17;;;;;;;;;;;17.80;99.90;;;;;;5085929;28;19909;-83
2022/05/29 15:31:51;;;;;;;;;;;18.10;99.90;;;;;;5085654;28;19908;-82
2022/05/29 15:34:35;;;;;;;;;;;18.00;99.90;;;;;;5068402;28;19916;-83
2022/05/29 15:37:01;;;;;;;;;;;17.90;99.90;;;;;;5085427;28;19912;-82
2022/05/29 15:39:35;;;;;;;;;;;17.70;99.90;;;;;;5086523;28;19909;-82
2022/05/29 15:42:00;;;;;;;;;;;17.60;99.90;;;;;;5085958;28;19915;-82
2022/05/29 15:44:26;;;;;;;;;;;17.60;99.90;;;;;;5067150;28;20003;-83
2022/05/29 15:47:07;;;;;;;;;;;17.50;99.90;;;;;;5066293;28;19909;-83